createdAt,value
2023-03-01T00:01:23.852Z,96467.22
2023-03-01T00:03:51.148Z,96483.66
2023-03-01T00:06:17.902Z,96486.44
2023-03-01T00:08:44.671Z,96491.59
2023-03-01T00:11:20.691Z,96468.22
2023-03-01T00:13:49.498Z,96484.63
2023-03-01T00:16:18.754Z,96482.41
2023-03-01T00:18:45.487Z,96485.00
2023-03-01T00:21:12.650Z,96483.81
2023-03-01T00:23:40.047Z,96437.31
2023-03-01T00:26:08.896Z,96481.44
2023-03-01T00:28:36.218Z,96487.44
2023-03-01T00:31:23.998Z,96475.28
2023-03-01T00:33:57.952Z,96477.44
2023-03-01T00:36:26.667Z,96460.28
2023-03-01T00:38:53.405Z,96477.00
2023-03-01T00:41:21.265Z,96471.03
2023-03-01T00:43:47.692Z,96419.75
2023-03-01T00:46:16.849Z,96470.66
2023-03-01T00:48:43.612Z,96465.50
2023-03-01T00:51:13.196Z,96466.09
2023-03-01T00:53:40.177Z,96446.34
2023-03-01T00:56:08.860Z,96447.91
2023-03-01T00:58:36.257Z,96462.28
2023-03-01T01:01:17.909Z,96455.47
2023-03-01T01:03:56.758Z,96455.69
2023-03-01T01:06:30.296Z,96431.53
2023-03-01T01:08:57.941Z,96435.69
2023-03-01T01:11:26.219Z,96443.91
2023-03-01T01:13:53.900Z,96431.91
2023-03-01T01:16:22.791Z,96423.53
2023-03-01T01:18:49.917Z,96433.09
2023-03-01T01:21:19.360Z,96421.75
2023-03-01T01:23:47.441Z,96428.31
2023-03-01T01:26:21.372Z,96428.91
2023-03-01T01:28:50.220Z,96418.34
2023-03-01T01:31:17.268Z,96413.91
2023-03-01T01:33:43.907Z,96407.53
2023-03-01T01:36:11.128Z,96410.16
2023-03-01T01:38:38.713Z,96424.94
2023-03-01T01:41:06.581Z,96403.53
2023-03-01T01:43:42.123Z,96413.75
2023-03-01T01:46:29.637Z,96413.75
2023-03-01T01:49:06.541Z,96403.19
2023-03-01T01:51:41.448Z,96406.78
2023-03-01T01:54:27.574Z,96377.59
2023-03-01T01:57:01.786Z,96388.97
2023-03-01T01:59:31.243Z,96384.59
2023-03-01T02:02:02.595Z,96396.75
2023-03-01T02:04:30.469Z,96380.59
2023-03-01T02:07:04.240Z,96394.56
2023-03-01T02:09:32.029Z,96397.38
2023-03-01T02:11:59.447Z,96381.38
2023-03-01T02:14:25.989Z,96352.09
2023-03-01T02:16:52.864Z,96325.41
2023-03-01T02:19:53.167Z,96372.44
2023-03-01T02:22:25.828Z,96390.00
2023-03-01T02:25:07.060Z,96366.84
2023-03-01T02:27:44.292Z,96385.78
2023-03-01T02:30:13.253Z,96345.34
2023-03-01T02:32:42.920Z,96377.00
2023-03-01T02:35:13.558Z,96358.84
2023-03-01T02:37:42.171Z,96382.41
2023-03-01T02:40:13.793Z,96369.22
2023-03-01T02:42:49.670Z,96353.22
2023-03-01T02:45:16.532Z,96335.94
2023-03-01T02:47:43.550Z,96349.72
2023-03-01T02:51:01.255Z,96354.50
2023-03-01T02:53:40.442Z,96361.47
2023-03-01T02:56:13.760Z,96353.28
2023-03-01T02:58:51.937Z,96337.72
2023-03-01T03:01:21.220Z,96365.28
2023-03-01T03:03:48.066Z,96355.69
2023-03-01T03:06:14.838Z,96359.88
2023-03-01T03:08:42.060Z,96362.28
2023-03-01T03:11:09.271Z,96362.50
2023-03-01T03:13:35.854Z,96351.53
2023-03-01T03:16:03.390Z,96372.63
2023-03-01T03:18:30.346Z,96365.31
2023-03-01T03:20:56.877Z,96347.75
2023-03-01T03:23:24.114Z,96370.09
2023-03-01T03:25:51.165Z,96368.28
2023-03-01T03:28:18.367Z,96365.91
2023-03-01T03:30:45.724Z,96370.88
2023-03-01T03:33:13.749Z,96319.88
2023-03-01T03:35:44.042Z,96332.59
2023-03-01T03:38:16.641Z,96353.34
2023-03-01T03:41:03.337Z,96359.91
2023-03-01T03:43:32.162Z,96320.25
2023-03-01T03:45:58.853Z,96358.91
2023-03-01T03:48:26.529Z,96350.16
2023-03-01T03:50:55.311Z,96343.38
2023-03-01T03:53:23.504Z,96353.75
2023-03-01T03:55:50.276Z,96338.19
2023-03-01T03:58:20.559Z,96341.34
2023-03-01T04:00:49.762Z,96343.34
2023-03-01T04:03:17.698Z,96339.16
2023-03-01T04:05:44.180Z,96338.19
2023-03-01T04:08:10.939Z,96329.81
2023-03-01T04:10:40.257Z,96339.78
2023-03-01T04:13:08.006Z,96325.03
2023-03-01T04:15:35.069Z,96332.97
2023-03-01T04:18:02.344Z,96325.19
2023-03-01T04:20:31.751Z,96336.16
2023-03-01T04:23:12.088Z,96334.22
2023-03-01T04:26:02.882Z,96336.63
2023-03-01T04:28:38.562Z,96334.59
2023-03-01T04:31:14.274Z,96338.19
2023-03-01T04:33:42.842Z,96331.00
2023-03-01T04:36:15.320Z,96329.66
2023-03-01T04:38:42.724Z,96332.84
2023-03-01T04:41:11.690Z,96337.03
2023-03-01T04:43:39.148Z,96321.47
2023-03-01T04:46:10.154Z,96326.06
2023-03-01T04:48:38.400Z,96306.94
2023-03-01T04:51:06.538Z,96325.47
2023-03-01T04:53:33.663Z,96329.44
2023-03-01T04:56:00.610Z,96296.75
2023-03-01T04:58:28.346Z,96269.66
2023-03-01T05:00:55.657Z,96314.91
2023-03-01T05:03:22.690Z,96318.09
2023-03-01T05:05:51.822Z,96327.28
2023-03-01T05:08:18.850Z,96317.91
2023-03-01T05:10:54.379Z,96300.38
2023-03-01T05:13:22.135Z,96320.31
2023-03-01T05:15:57.266Z,96325.69
2023-03-01T05:18:26.984Z,96317.09
2023-03-01T05:20:57.132Z,96311.53
2023-03-01T05:23:24.022Z,96310.53
2023-03-01T05:25:55.138Z,96302.75
2023-03-01T05:28:21.742Z,96314.91
2023-03-01T05:30:48.507Z,96317.91
2023-03-01T05:33:15.182Z,96311.91
2023-03-01T05:35:43.436Z,96299.59
2023-03-01T05:38:14.078Z,96311.13
2023-03-01T05:40:42.925Z,96313.50
2023-03-01T05:43:09.477Z,96307.13
2023-03-01T05:45:38.365Z,96288.59
2023-03-01T05:48:06.539Z,96310.91
2023-03-01T05:50:35.930Z,96295.59
2023-03-01T05:53:06.716Z,96295.59
2023-03-01T05:55:33.914Z,96301.94
2023-03-01T05:58:05.157Z,96288.59
2023-03-01T06:00:31.920Z,96300.53
2023-03-01T06:02:58.942Z,96318.69
2023-03-01T06:05:26.319Z,96312.72
2023-03-01T06:07:53.927Z,96315.91
2023-03-01T06:10:22.435Z,96317.50
2023-03-01T06:12:49.324Z,96324.88
2023-03-01T06:15:17.419Z,96320.09
2023-03-01T06:17:46.900Z,96318.31
2023-03-01T06:20:16.342Z,96326.47
2023-03-01T06:22:45.745Z,96307.53
2023-03-01T06:25:15.293Z,96318.09
2023-03-01T06:27:42.622Z,96282.81
2023-03-01T06:30:12.005Z,96294.59
2023-03-01T06:32:42.971Z,96297.97
2023-03-01T06:35:15.002Z,96328.28
2023-03-01T06:37:42.121Z,96318.31
2023-03-01T06:40:12.304Z,96274.63
2023-03-01T06:42:40.520Z,96328.47
2023-03-01T06:45:07.944Z,96329.47
2023-03-01T06:47:34.661Z,96317.91
2023-03-01T06:50:02.467Z,96328.69
2023-03-01T06:52:29.032Z,96326.69
2023-03-01T06:54:55.504Z,96301.94
2023-03-01T06:57:22.045Z,96296.75
2023-03-01T06:59:48.901Z,96302.75
2023-03-01T07:02:16.182Z,96324.28
2023-03-01T07:04:43.486Z,96317.50
2023-03-01T07:07:10.069Z,96323.28
2023-03-01T07:09:36.512Z,96315.31
2023-03-01T07:12:03.428Z,96302.75
2023-03-01T07:14:29.900Z,96325.88
2023-03-01T07:16:56.605Z,96305.13
2023-03-01T07:19:23.428Z,96275.63
2023-03-01T07:21:50.022Z,96314.91
2023-03-01T07:24:16.556Z,96306.34
2023-03-01T07:26:42.990Z,96306.94
2023-03-01T07:29:11.674Z,96302.75
2023-03-01T07:31:38.179Z,96275.63
2023-03-01T07:34:04.694Z,96295.59
2023-03-01T07:36:31.515Z,96306.72
2023-03-01T07:38:58.852Z,96296.34
2023-03-01T07:41:25.625Z,96304.75
2023-03-01T07:43:52.068Z,96283.38
2023-03-01T07:46:20.075Z,96286.78
2023-03-01T07:48:46.652Z,96256.09
2023-03-01T07:51:13.335Z,96284.78
2023-03-01T07:53:40.091Z,96299.53
2023-03-01T07:56:14.206Z,96278.59
2023-03-01T07:58:44.761Z,96293.31
2023-03-01T08:01:14.210Z,96292.13
2023-03-01T08:03:40.797Z,96293.09
2023-03-01T08:06:09.692Z,96290.91
2023-03-01T08:08:36.779Z,96287.56
2023-03-01T08:11:05.487Z,96289.72
2023-03-01T08:13:32.457Z,96291.13
2023-03-01T08:16:13.577Z,96281.56
2023-03-01T08:18:40.307Z,96273.56
2023-03-01T08:21:09.305Z,96278.75
2023-03-01T08:23:36.075Z,96279.78
2023-03-01T08:26:13.139Z,96292.50
2023-03-01T08:28:40.490Z,96283.94
2023-03-01T08:31:24.866Z,96282.13
2023-03-01T08:33:57.224Z,96279.72
2023-03-01T08:36:29.966Z,96282.66
2023-03-01T08:38:57.004Z,96281.47
2023-03-01T08:41:23.775Z,96253.00
2023-03-01T08:43:50.897Z,96257.91
2023-03-01T08:46:17.549Z,96275.03
2023-03-01T08:48:44.220Z,96253.50
2023-03-01T08:51:19.458Z,96265.88
2023-03-01T08:53:46.127Z,96261.84
2023-03-01T08:56:12.764Z,96267.47
2023-03-01T08:58:40.895Z,96258.66
2023-03-01T09:01:12.481Z,96241.09
2023-03-01T09:03:39.031Z,96225.75
2023-03-01T09:06:08.346Z,96253.78
2023-03-01T09:08:53.102Z,96247.41
2023-03-01T09:11:21.841Z,96245.19
2023-03-01T09:13:49.629Z,96262.31
2023-03-01T09:16:20.077Z,96251.53
2023-03-01T09:18:50.310Z,96216.09
2023-03-01T09:21:22.580Z,96264.88
2023-03-01T09:23:51.542Z,96265.03
2023-03-01T09:26:23.178Z,96265.59
2023-03-01T09:28:52.321Z,96266.81
2023-03-01T09:31:23.260Z,96251.19
2023-03-01T09:33:52.945Z,96257.78
2023-03-01T09:36:22.507Z,96240.63
2023-03-01T09:38:49.947Z,96253.59
2023-03-01T09:41:39.577Z,96257.88
2023-03-01T09:44:16.950Z,96248.13
2023-03-01T09:46:46.227Z,96241.59
2023-03-01T09:49:20.569Z,96250.13
2023-03-01T09:52:20.281Z,96244.16
2023-03-01T09:54:48.044Z,96237.84
2023-03-01T09:57:31.000Z,96246.19
2023-03-01T10:00:17.666Z,96247.00
2023-03-01T10:03:00.509Z,96231.72
2023-03-01T10:05:40.928Z,96246.59
2023-03-01T10:08:20.156Z,96246.69
2023-03-01T10:10:49.750Z,96222.56
2023-03-01T10:13:34.904Z,96229.13
2023-03-01T10:16:14.018Z,96208.47
2023-03-01T10:18:42.011Z,96223.81
2023-03-01T10:21:21.021Z,96210.22
2023-03-01T10:23:52.500Z,96213.00
2023-03-01T10:26:27.971Z,96224.59
2023-03-01T10:29:03.521Z,96222.44
2023-03-01T10:31:44.199Z,96227.00
2023-03-01T10:34:20.669Z,96223.19
2023-03-01T10:36:52.406Z,96208.22
2023-03-01T10:39:22.134Z,96219.69
2023-03-01T10:41:56.192Z,96225.41
2023-03-01T10:44:39.387Z,96205.69
2023-03-01T10:47:06.194Z,96205.97
2023-03-01T10:49:32.948Z,96209.25
2023-03-01T10:52:18.864Z,96196.94
2023-03-01T10:54:53.897Z,96199.66
2023-03-01T10:57:39.440Z,96171.03
2023-03-01T11:00:20.080Z,96176.34
2023-03-01T11:02:52.228Z,96174.31
2023-03-01T11:05:24.969Z,96171.16
2023-03-01T11:07:59.818Z,96148.47
2023-03-01T11:10:31.534Z,96159.38
2023-03-01T11:13:08.540Z,96148.28
2023-03-01T11:15:35.920Z,96143.03
2023-03-01T11:18:13.760Z,96135.22
2023-03-01T11:20:42.288Z,96129.78
2023-03-01T11:23:16.270Z,96125.53
2023-03-01T11:26:05.711Z,96133.59
2023-03-01T11:28:33.680Z,96127.69
2023-03-01T11:31:16.296Z,96113.94
2023-03-01T11:33:51.938Z,96120.06
2023-03-01T11:36:44.614Z,96114.09
2023-03-01T11:39:34.131Z,96115.69
2023-03-01T11:42:19.283Z,96104.97
2023-03-01T11:44:50.698Z,96093.75
2023-03-01T11:47:48.144Z,96105.84
2023-03-01T11:50:31.004Z,96088.38
2023-03-01T11:53:06.648Z,96095.97
2023-03-01T11:56:01.289Z,96092.66
2023-03-01T11:58:53.632Z,96090.44
2023-03-01T12:01:42.186Z,96092.66
2023-03-01T12:04:21.165Z,96092.94
2023-03-01T12:06:57.604Z,96081.00
2023-03-01T12:09:45.630Z,96087.44
2023-03-01T12:12:39.624Z,96079.75
2023-03-01T12:15:29.450Z,96077.47
2023-03-01T12:18:05.468Z,96075.00
2023-03-01T12:20:52.989Z,96058.22
2023-03-01T12:23:51.932Z,96054.72
2023-03-01T12:26:21.420Z,96058.78
2023-03-01T12:29:03.026Z,96058.41
2023-03-01T12:31:54.456Z,96062.72
2023-03-01T12:34:23.769Z,96058.44
2023-03-01T12:37:16.479Z,96050.81
2023-03-01T12:40:04.821Z,96045.03
2023-03-01T12:42:58.501Z,96037.94
2023-03-01T12:46:03.840Z,96038.09
2023-03-01T12:48:49.068Z,96042.00
2023-03-01T12:51:20.774Z,96031.59
2023-03-01T12:53:52.286Z,96027.47
2023-03-01T12:56:28.734Z,96039.91
2023-03-01T12:59:01.158Z,96014.75
2023-03-01T13:01:37.677Z,96029.38
2023-03-01T13:04:16.539Z,96036.28
2023-03-01T13:07:30.507Z,96034.09
2023-03-01T13:10:11.620Z,96031.16
2023-03-01T13:12:50.439Z,96038.78
2023-03-01T13:15:23.116Z,96037.81
2023-03-01T13:17:51.956Z,96019.66
2023-03-01T13:20:21.668Z,96040.03
2023-03-01T13:23:00.562Z,96039.41
2023-03-01T13:25:32.017Z,96019.84
2023-03-01T13:28:35.657Z,96047.41
2023-03-01T13:31:07.596Z,96039.47
2023-03-01T13:33:41.805Z,96033.72
2023-03-01T13:36:09.843Z,96020.66
2023-03-01T13:38:45.512Z,96018.97
2023-03-01T13:41:12.523Z,96019.53
2023-03-01T13:43:43.178Z,95993.25
2023-03-01T13:46:23.635Z,96004.34
2023-03-01T13:48:53.867Z,95989.69
2023-03-01T13:51:28.194Z,96009.78
2023-03-01T13:53:58.514Z,96025.41
2023-03-01T13:56:26.995Z,96020.56
2023-03-01T13:58:57.573Z,95987.13
2023-03-01T14:01:36.257Z,95988.50
2023-03-01T14:04:18.290Z,96007.78
2023-03-01T14:06:44.765Z,95994.41
2023-03-01T14:09:19.831Z,96004.81
2023-03-01T14:12:20.041Z,96001.44
2023-03-01T14:14:53.624Z,95983.31
2023-03-01T14:17:45.728Z,95994.84
2023-03-01T14:20:17.440Z,95954.19
2023-03-01T14:22:44.739Z,95968.72
2023-03-01T14:25:25.500Z,95995.19
2023-03-01T14:27:57.277Z,95974.03
2023-03-01T14:30:45.621Z,95977.19
2023-03-01T14:33:28.716Z,95980.56
2023-03-01T14:36:02.704Z,95974.78
2023-03-01T14:38:35.816Z,95952.78
2023-03-01T14:41:23.665Z,95951.69
2023-03-01T14:43:59.698Z,95920.91
2023-03-01T14:46:41.819Z,95956.13
2023-03-01T14:49:14.985Z,95932.47
2023-03-01T14:51:47.504Z,95929.38
2023-03-01T14:54:35.875Z,95957.28
2023-03-01T14:57:03.102Z,95956.22
2023-03-01T14:59:29.601Z,95936.97
2023-03-01T15:01:58.541Z,95949.91
2023-03-01T15:04:28.522Z,95934.09
2023-03-01T15:07:05.686Z,95940.34
2023-03-01T15:09:35.821Z,95939.19
2023-03-01T15:12:43.188Z,95951.53
2023-03-01T15:15:27.720Z,95934.56
2023-03-01T15:17:57.625Z,95937.34
2023-03-01T15:20:28.293Z,95945.78
2023-03-01T15:22:56.857Z,95916.44
2023-03-01T15:25:29.204Z,95933.13
2023-03-01T15:27:58.485Z,95936.75
2023-03-01T15:30:30.001Z,95924.34
2023-03-01T15:33:20.553Z,95946.41
2023-03-01T15:35:54.555Z,95943.94
2023-03-01T15:38:51.896Z,95915.66
2023-03-01T15:41:32.039Z,95935.91
2023-03-01T15:44:15.309Z,95921.78
2023-03-01T15:46:48.025Z,95938.72
2023-03-01T15:49:49.597Z,95935.59
2023-03-01T15:52:29.737Z,95937.03
2023-03-01T15:55:02.081Z,95925.38
2023-03-01T15:57:29.261Z,95930.56
2023-03-01T15:59:56.046Z,95914.63
2023-03-01T16:02:25.229Z,95900.97
2023-03-01T16:04:51.944Z,95902.75
2023-03-01T16:07:18.541Z,95926.91
2023-03-01T16:09:45.123Z,95931.78
2023-03-01T16:12:16.128Z,95930.69
2023-03-01T16:14:43.130Z,95917.53
2023-03-01T16:17:11.228Z,95917.53
2023-03-01T16:19:42.028Z,95915.56
2023-03-01T16:22:11.459Z,95905.28
2023-03-01T16:24:38.011Z,95919.66
2023-03-01T16:27:04.707Z,95919.59
2023-03-01T16:29:31.275Z,95932.88
2023-03-01T16:31:58.307Z,95931.25
2023-03-01T16:34:25.207Z,95925.88
2023-03-01T16:36:51.674Z,95913.03
2023-03-01T16:39:18.304Z,95894.38
2023-03-01T16:41:44.753Z,95880.28
2023-03-01T16:44:11.248Z,95927.22
2023-03-01T16:46:37.778Z,95900.72
2023-03-01T16:49:04.263Z,95905.06
2023-03-01T16:51:31.910Z,95925.97
2023-03-01T16:53:58.653Z,95911.69
2023-03-01T16:56:25.461Z,95924.44
2023-03-01T16:58:51.911Z,95904.56
2023-03-01T17:01:20.835Z,95917.63
2023-03-01T17:03:49.572Z,95937.69
2023-03-01T17:06:21.141Z,95946.50
2023-03-01T17:08:47.935Z,95941.13
2023-03-01T17:11:17.058Z,95948.91
2023-03-01T17:13:44.213Z,95937.94
2023-03-01T17:16:13.921Z,95954.72
2023-03-01T17:18:40.776Z,95938.50
2023-03-01T17:21:08.122Z,95957.41
2023-03-01T17:23:36.189Z,95954.63
2023-03-01T17:26:03.656Z,95939.66
2023-03-01T17:28:32.709Z,95916.03
2023-03-01T17:31:01.046Z,95966.72
2023-03-01T17:33:27.651Z,95973.34
2023-03-01T17:35:54.245Z,95931.22
2023-03-01T17:38:21.143Z,95910.06
2023-03-01T17:40:47.944Z,95922.22
2023-03-01T17:43:16.262Z,95953.91
2023-03-01T17:45:47.548Z,95960.59
2023-03-01T17:48:15.692Z,95978.19
2023-03-01T17:50:42.284Z,95950.34
2023-03-01T17:53:09.750Z,95961.91
2023-03-01T17:55:37.319Z,95970.41
2023-03-01T17:58:05.389Z,95964.88
2023-03-01T18:00:32.468Z,95955.59
2023-03-01T18:02:59.011Z,95933.63
2023-03-01T18:05:25.929Z,95989.56
2023-03-01T18:07:55.519Z,95981.63
2023-03-01T18:10:22.022Z,95973.34
2023-03-01T18:12:48.486Z,95959.66
2023-03-01T18:15:15.061Z,95962.31
2023-03-01T18:17:41.518Z,95892.25
2023-03-01T18:20:08.531Z,95966.50
2023-03-01T18:22:35.266Z,95989.56
2023-03-01T18:25:01.726Z,95972.59
2023-03-01T18:27:28.221Z,95973.03
2023-03-01T18:29:55.001Z,95992.44
2023-03-01T18:32:22.099Z,95984.41
2023-03-01T18:34:48.646Z,95956.00
2023-03-01T18:37:15.548Z,95993.69
2023-03-01T18:39:41.967Z,95974.91
2023-03-01T18:42:08.836Z,95986.81
2023-03-01T18:44:36.073Z,95965.84
2023-03-01T18:47:02.499Z,95980.13
2023-03-01T18:49:28.962Z,95968.22
2023-03-01T18:51:55.508Z,95989.06
2023-03-01T18:54:21.935Z,95972.88
2023-03-01T18:56:48.382Z,95970.38
2023-03-01T18:59:15.109Z,95943.22
2023-03-01T19:01:41.728Z,95933.00
2023-03-01T19:04:09.724Z,95973.88
2023-03-01T19:06:36.737Z,95960.63
2023-03-01T19:09:04.511Z,95966.06
2023-03-01T19:11:33.227Z,95963.31
2023-03-01T19:14:00.373Z,95964.03
2023-03-01T19:16:30.686Z,95973.84
2023-03-01T19:19:00.419Z,95979.63
2023-03-01T19:21:30.137Z,95987.09
2023-03-01T19:23:58.253Z,95965.38
2023-03-01T19:26:27.218Z,95928.81
2023-03-01T19:28:55.150Z,95934.59
2023-03-01T19:31:25.905Z,95975.38
2023-03-01T19:33:59.446Z,95981.38
2023-03-01T19:36:35.114Z,95973.78
2023-03-01T19:39:06.633Z,95960.22
2023-03-01T19:41:33.283Z,95964.28
2023-03-01T19:44:02.700Z,95950.56
2023-03-01T19:46:29.385Z,95954.19
2023-03-01T19:48:56.114Z,95964.25
2023-03-01T19:51:22.712Z,95955.53
2023-03-01T19:53:49.411Z,95968.44
2023-03-01T20:00:37.927Z,95964.03
2023-03-01T20:03:04.950Z,95973.75
2023-03-01T20:05:37.337Z,95966.41
2023-03-01T20:08:04.684Z,95965.22
2023-03-01T20:10:34.444Z,95963.06
2023-03-01T20:13:03.801Z,95963.38
2023-03-01T20:15:30.598Z,95968.38
2023-03-01T20:17:57.109Z,95954.78
2023-03-01T20:20:23.674Z,95957.13
2023-03-01T20:22:50.225Z,95950.53
2023-03-01T20:25:17.448Z,95964.03
2023-03-01T20:27:47.801Z,95960.97
2023-03-01T20:30:15.843Z,95952.50
2023-03-01T20:32:42.739Z,95949.31
2023-03-01T20:35:10.303Z,95960.97
2023-03-01T20:37:37.245Z,95950.03
2023-03-01T20:40:04.744Z,95960.97
2023-03-01T20:42:31.221Z,95957.94
2023-03-01T20:44:57.673Z,95940.50
2023-03-01T20:47:24.211Z,95927.94
2023-03-01T20:49:51.857Z,95954.03
2023-03-01T20:52:18.645Z,95953.06
2023-03-01T20:54:45.119Z,95939.81
2023-03-01T20:57:12.034Z,95933.75
2023-03-01T20:59:38.518Z,95951.16
2023-03-01T21:02:05.038Z,95943.38
2023-03-01T21:04:31.501Z,95957.22
2023-03-01T21:06:58.028Z,95942.94
2023-03-01T21:09:24.469Z,95910.34
2023-03-01T21:11:50.963Z,95911.72
2023-03-01T21:14:17.521Z,95949.97
2023-03-01T21:16:47.058Z,95947.81
2023-03-01T21:19:13.712Z,95933.78
2023-03-01T21:21:40.460Z,95937.66
2023-03-01T21:24:10.198Z,95945.72
2023-03-01T21:26:36.767Z,95928.38
2023-03-01T21:29:03.271Z,95905.63
2023-03-01T21:31:33.801Z,95943.66
2023-03-01T21:34:05.488Z,95920.09
2023-03-01T21:36:33.541Z,95907.09
2023-03-01T21:39:03.600Z,95918.63
2023-03-01T21:41:33.190Z,95931.91
2023-03-01T21:44:01.583Z,95930.41
2023-03-01T21:46:32.064Z,95927.13
2023-03-01T21:48:59.144Z,95917.19
2023-03-01T21:51:27.373Z,95908.56
2023-03-01T21:53:58.567Z,95916.84
2023-03-01T21:56:28.306Z,95917.16
2023-03-01T21:58:55.563Z,95920.44
2023-03-01T22:01:25.670Z,95925.56
2023-03-01T22:03:52.489Z,95886.34
2023-03-01T22:06:28.037Z,95929.19
2023-03-01T22:09:07.491Z,95926.47
2023-03-01T22:11:37.314Z,95918.97
2023-03-01T22:14:04.758Z,95914.44
2023-03-01T22:16:34.714Z,95915.13
2023-03-01T22:19:02.474Z,95917.16
2023-03-01T22:21:29.042Z,95913.06
2023-03-01T22:23:56.301Z,95922.75
2023-03-01T22:26:29.358Z,95920.59
2023-03-01T22:28:58.713Z,95881.41
2023-03-01T22:31:26.084Z,95909.81
2023-03-01T22:33:53.490Z,95897.66
2023-03-01T22:36:20.276Z,95911.22
2023-03-01T22:38:47.525Z,95906.41
2023-03-01T22:41:14.473Z,95894.31
2023-03-01T22:43:41.100Z,95896.03
2023-03-01T22:46:17.084Z,95895.63
2023-03-01T22:48:44.182Z,95887.13
2023-03-01T22:51:15.849Z,95908.50
2023-03-01T22:53:42.330Z,95898.41
2023-03-01T22:56:14.515Z,95896.75
2023-03-01T22:58:41.407Z,95897.69
2023-03-01T23:01:12.872Z,95898.38
2023-03-01T23:03:39.605Z,95869.13
2023-03-01T23:06:06.279Z,95884.16
2023-03-01T23:08:32.778Z,95888.78
2023-03-01T23:10:59.613Z,95884.38
2023-03-01T23:13:26.453Z,95890.03
2023-03-01T23:15:57.348Z,95888.78
2023-03-01T23:18:23.928Z,95886.13
2023-03-01T23:20:50.372Z,95873.63
2023-03-01T23:23:17.038Z,95865.91
2023-03-01T23:25:55.514Z,95884.25
2023-03-01T23:28:22.534Z,95855.25
2023-03-01T23:30:57.280Z,95897.38
2023-03-01T23:33:25.127Z,95902.56
2023-03-01T23:35:51.802Z,95880.06
2023-03-01T23:38:18.311Z,95894.00
2023-03-01T23:40:44.788Z,95885.84
2023-03-01T23:43:11.269Z,95886.34
2023-03-01T23:45:42.953Z,95884.00
2023-03-01T23:48:11.255Z,95840.63
2023-03-01T23:50:41.810Z,95872.63
2023-03-01T23:53:12.497Z,95892.63
2023-03-01T23:55:42.421Z,95860.09
2023-03-01T23:58:09.163Z,95887.06
